sensor_id;sensor_type;location;lat;lon;timestamp;temperature;humidity
38084;DHT22;23894;51.466;7.444;2022-08-04T00:02:06;21.20;99.90
38084;DHT22;23894;51.466;7.444;2022-08-04T00:04:17;21.20;99.90
38084;DHT22;23894;51.466;7.444;2022-08-04T00:06:39;21.10;99.90
38084;DHT22;23894;51.466;7.444;2022-08-04T00:09:09;21.10;99.90
38084;DHT22;23894;51.466;7.444;2022-08-04T00:11:14;21.10;99.90
38084;DHT22;23894;51.466;7.444;2022-08-04T00:13:16;21.10;99.90
38084;DHT22;23894;51.466;7.444;2022-08-04T00:15:23;21.00;99.90
38084;DHT22;23894;51.466;7.444;2022-08-04T00:17:29;21.00;99.90
38084;DHT22;23894;51.466;7.444;2022-08-04T00:19:36;21.00;99.90
38084;DHT22;23894;51.466;7.444;2022-08-04T00:21:41;21.00;99.90
38084;DHT22;23894;51.466;7.444;2022-08-04T00:23:46;20.90;99.90
38084;DHT22;23894;51.466;7.444;2022-08-04T00:25:48;20.90;99.90
38084;DHT22;23894;51.466;7.444;2022-08-04T00:27:50;20.90;99.90
38084;DHT22;23894;51.466;7.444;2022-08-04T00:29:50;20.90;99.90
38084;DHT22;23894;51.466;7.444;2022-08-04T00:31:51;20.80;99.90
38084;DHT22;23894;51.466;7.444;2022-08-04T00:33:53;20.80;99.90
38084;DHT22;23894;51.466;7.444;2022-08-04T00:35:55;20.80;99.90
38084;DHT22;23894;51.466;7.444;2022-08-04T00:37:57;20.80;99.90
38084;DHT22;23894;51.466;7.444;2022-08-04T00:39:59;20.70;99.90
38084;DHT22;23894;51.466;7.444;2022-08-04T00:42:26;20.70;99.90
38084;DHT22;23894;51.466;7.444;2022-08-04T00:46:55;20.70;99.90
38084;DHT22;23894;51.466;7.444;2022-08-04T00:49:49;20.60;99.90
38084;DHT22;23894;51.466;7.444;2022-08-04T00:52:01;20.70;99.90
38084;DHT22;23894;51.466;7.444;2022-08-04T01:06:17;20.50;99.90
38084;DHT22;23894;51.466;7.444;2022-08-04T01:08:54;20.50;99.90
38084;DHT22;23894;51.466;7.444;2022-08-04T01:20:12;20.50;99.90
38084;DHT22;23894;51.466;7.444;2022-08-04T01:22:40;20.50;99.90
38084;DHT22;23894;51.466;7.444;2022-08-04T01:29:48;20.50;99.90
38084;DHT22;23894;51.466;7.444;2022-08-04T01:31:54;20.40;99.90
38084;DHT22;23894;51.466;7.444;2022-08-04T01:33:59;20.40;99.90
38084;DHT22;23894;51.466;7.444;2022-08-04T01:36:04;20.40;99.90
38084;DHT22;23894;51.466;7.444;2022-08-04T01:38:13;20.40;99.90
38084;DHT22;23894;51.466;7.444;2022-08-04T01:40:16;20.40;99.90
38084;DHT22;23894;51.466;7.444;2022-08-04T01:42:19;20.40;99.90
38084;DHT22;23894;51.466;7.444;2022-08-04T01:44:23;20.30;99.90
38084;DHT22;23894;51.466;7.444;2022-08-04T01:46:31;20.30;99.90
38084;DHT22;23894;51.466;7.444;2022-08-04T01:48:33;20.30;99.90
38084;DHT22;23894;51.466;7.444;2022-08-04T01:50:38;20.30;99.90
38084;DHT22;23894;51.466;7.444;2022-08-04T01:52:43;20.30;99.90
38084;DHT22;23894;51.466;7.444;2022-08-04T01:54:45;20.30;99.90
38084;DHT22;23894;51.466;7.444;2022-08-04T01:56:48;20.20;99.90
38084;DHT22;23894;51.466;7.444;2022-08-04T01:58:49;20.20;99.90
38084;DHT22;23894;51.466;7.444;2022-08-04T02:01:03;20.20;99.90
38084;DHT22;23894;51.466;7.444;2022-08-04T02:03:04;20.20;99.90
38084;DHT22;23894;51.466;7.444;2022-08-04T02:05:05;20.20;99.90
38084;DHT22;23894;51.466;7.444;2022-08-04T02:12:24;20.10;99.90
38084;DHT22;23894;51.466;7.444;2022-08-04T02:14:29;20.00;99.90
38084;DHT22;23894;51.466;7.444;2022-08-04T02:16:47;20.00;99.90
38084;DHT22;23894;51.466;7.444;2022-08-04T02:19:34;20.00;99.90
38084;DHT22;23894;51.466;7.444;2022-08-04T02:21:10;20.00;99.90
38084;DHT22;23894;51.466;7.444;2022-08-04T02:23:22;20.00;99.90
38084;DHT22;23894;51.466;7.444;2022-08-04T02:25:28;20.00;99.90
38084;DHT22;23894;51.466;7.444;2022-08-04T02:27:52;20.00;99.90
38084;DHT22;23894;51.466;7.444;2022-08-04T02:29:58;20.00;99.90
38084;DHT22;23894;51.466;7.444;2022-08-04T02:32:04;19.90;99.90
38084;DHT22;23894;51.466;7.444;2022-08-04T02:34:07;19.90;99.90
38084;DHT22;23894;51.466;7.444;2022-08-04T02:36:13;19.90;99.90
38084;DHT22;23894;51.466;7.444;2022-08-04T02:38:42;20.00;99.90
38084;DHT22;23894;51.466;7.444;2022-08-04T02:40:47;19.90;99.90
38084;DHT22;23894;51.466;7.444;2022-08-04T02:42:48;19.90;99.90
38084;DHT22;23894;51.466;7.444;2022-08-04T02:44:50;19.90;99.90
38084;DHT22;23894;51.466;7.444;2022-08-04T02:46:51;19.90;99.90
38084;DHT22;23894;51.466;7.444;2022-08-04T02:48:53;19.80;99.90
38084;DHT22;23894;51.466;7.444;2022-08-04T02:50:55;19.80;99.90
38084;DHT22;23894;51.466;7.444;2022-08-04T02:52:59;19.80;99.90
38084;DHT22;23894;51.466;7.444;2022-08-04T02:55:02;19.80;99.90
38084;DHT22;23894;51.466;7.444;2022-08-04T02:57:08;19.80;99.90
38084;DHT22;23894;51.466;7.444;2022-08-04T02:59:12;19.70;99.90
38084;DHT22;23894;51.466;7.444;2022-08-04T03:01:13;19.80;99.90
38084;DHT22;23894;51.466;7.444;2022-08-04T03:10:54;19.70;99.90
38084;DHT22;23894;51.466;7.444;2022-08-04T03:13:05;19.70;99.90
38084;DHT22;23894;51.466;7.444;2022-08-04T03:20:20;19.70;99.90
38084;DHT22;23894;51.466;7.444;2022-08-04T03:34:04;19.70;99.90
38084;DHT22;23894;51.466;7.444;2022-08-04T03:38:55;19.60;99.90
38084;DHT22;23894;51.466;7.444;2022-08-04T03:48:32;19.60;99.90
38084;DHT22;23894;51.466;7.444;2022-08-04T03:56:24;19.50;99.90
38084;DHT22;23894;51.466;7.444;2022-08-04T04:06:32;19.40;99.90
38084;DHT22;23894;51.466;7.444;2022-08-04T04:08:59;19.40;99.90
38084;DHT22;23894;51.466;7.444;2022-08-04T04:26:00;19.40;99.90
38084;DHT22;23894;51.466;7.444;2022-08-04T04:31:19;19.40;99.90
38084;DHT22;23894;51.466;7.444;2022-08-04T04:48:03;19.40;99.90
38084;DHT22;23894;51.466;7.444;2022-08-04T04:50:15;19.40;99.90
38084;DHT22;23894;51.466;7.444;2022-08-04T04:52:37;19.40;99.90
38084;DHT22;23894;51.466;7.444;2022-08-04T04:54:43;19.40;99.90
38084;DHT22;23894;51.466;7.444;2022-08-04T04:56:55;19.40;99.90
38084;DHT22;23894;51.466;7.444;2022-08-04T04:59:00;19.50;99.90
38084;DHT22;23894;51.466;7.444;2022-08-04T05:04:15;19.50;99.90
38084;DHT22;23894;51.466;7.444;2022-08-04T05:08:58;19.60;99.90
38084;DHT22;23894;51.466;7.444;2022-08-04T05:15:35;19.70;99.90
38084;DHT22;23894;51.466;7.444;2022-08-04T05:17:39;19.70;99.90
38084;DHT22;23894;51.466;7.444;2022-08-04T05:22:10;19.80;99.90
38084;DHT22;23894;51.466;7.444;2022-08-04T05:24:19;19.80;99.90
38084;DHT22;23894;51.466;7.444;2022-08-04T05:26:26;19.90;99.90
38084;DHT22;23894;51.466;7.444;2022-08-04T05:28:35;19.90;99.90
38084;DHT22;23894;51.466;7.444;2022-08-04T05:30:43;20.00;99.90
38084;DHT22;23894;51.466;7.444;2022-08-04T05:33:04;20.00;99.90
38084;DHT22;23894;51.466;7.444;2022-08-04T05:35:11;20.10;99.90
38084;DHT22;23894;51.466;7.444;2022-08-04T05:37:16;20.10;99.90
38084;DHT22;23894;51.466;7.444;2022-08-04T05:39:24;20.10;99.90
38084;DHT22;23894;51.466;7.444;2022-08-04T05:41:27;20.10;99.90
38084;DHT22;23894;51.466;7.444;2022-08-04T05:43:28;20.20;99.90
38084;DHT22;23894;51.466;7.444;2022-08-04T05:45:30;20.20;99.90
38084;DHT22;23894;51.466;7.444;2022-08-04T05:47:31;20.30;99.90
38084;DHT22;23894;51.466;7.444;2022-08-04T05:49:32;20.30;99.90
38084;DHT22;23894;51.466;7.444;2022-08-04T05:51:34;20.40;99.90
38084;DHT22;23894;51.466;7.444;2022-08-04T05:53:35;20.40;99.90
38084;DHT22;23894;51.466;7.444;2022-08-04T05:55:35;20.50;99.90
38084;DHT22;23894;51.466;7.444;2022-08-04T05:57:39;20.50;99.90
38084;DHT22;23894;51.466;7.444;2022-08-04T05:59:41;20.60;99.90
38084;DHT22;23894;51.466;7.444;2022-08-04T06:01:46;20.70;99.90
38084;DHT22;23894;51.466;7.444;2022-08-04T06:03:48;20.70;99.90
38084;DHT22;23894;51.466;7.444;2022-08-04T06:05:50;20.80;99.90
38084;DHT22;23894;51.466;7.444;2022-08-04T06:07:52;20.90;99.90
38084;DHT22;23894;51.466;7.444;2022-08-04T06:09:53;21.00;99.90
38084;DHT22;23894;51.466;7.444;2022-08-04T06:11:55;21.00;99.90
38084;DHT22;23894;51.466;7.444;2022-08-04T06:14:00;21.10;99.90
38084;DHT22;23894;51.466;7.444;2022-08-04T06:16:04;21.20;99.90
38084;DHT22;23894;51.466;7.444;2022-08-04T06:18:06;21.30;99.90
38084;DHT22;23894;51.466;7.444;2022-08-04T06:20:10;21.40;99.90
38084;DHT22;23894;51.466;7.444;2022-08-04T06:22:13;21.40;99.90
38084;DHT22;23894;51.466;7.444;2022-08-04T06:24:19;21.50;99.90
38084;DHT22;23894;51.466;7.444;2022-08-04T06:26:24;21.60;99.90
38084;DHT22;23894;51.466;7.444;2022-08-04T06:28:27;21.60;99.90
38084;DHT22;23894;51.466;7.444;2022-08-04T06:30:30;21.70;99.90
38084;DHT22;23894;51.466;7.444;2022-08-04T06:32:33;21.80;99.90
38084;DHT22;23894;51.466;7.444;2022-08-04T06:34:46;21.80;99.90
38084;DHT22;23894;51.466;7.444;2022-08-04T06:36:47;21.90;99.90
38084;DHT22;23894;51.466;7.444;2022-08-04T06:38:49;21.90;99.90
38084;DHT22;23894;51.466;7.444;2022-08-04T06:40:50;22.00;99.90
38084;DHT22;23894;51.466;7.444;2022-08-04T06:42:52;22.10;99.90
38084;DHT22;23894;51.466;7.444;2022-08-04T06:44:56;22.20;99.90
38084;DHT22;23894;51.466;7.444;2022-08-04T06:46:58;22.20;99.90
38084;DHT22;23894;51.466;7.444;2022-08-04T06:48:59;22.20;99.90
38084;DHT22;23894;51.466;7.444;2022-08-04T06:51:01;22.30;99.90
38084;DHT22;23894;51.466;7.444;2022-08-04T06:53:02;22.40;99.90
38084;DHT22;23894;51.466;7.444;2022-08-04T06:55:05;22.50;99.90
38084;DHT22;23894;51.466;7.444;2022-08-04T06:57:06;22.50;99.90
38084;DHT22;23894;51.466;7.444;2022-08-04T06:59:07;22.60;99.90
38084;DHT22;23894;51.466;7.444;2022-08-04T07:01:09;22.70;99.90
38084;DHT22;23894;51.466;7.444;2022-08-04T07:03:10;22.80;99.90
38084;DHT22;23894;51.466;7.444;2022-08-04T07:05:12;22.90;99.90
38084;DHT22;23894;51.466;7.444;2022-08-04T07:07:13;22.90;99.90
38084;DHT22;23894;51.466;7.444;2022-08-04T07:09:14;23.00;99.90
38084;DHT22;23894;51.466;7.444;2022-08-04T07:11:16;23.00;99.90
38084;DHT22;23894;51.466;7.444;2022-08-04T07:13:17;23.10;99.90
38084;DHT22;23894;51.466;7.444;2022-08-04T07:15:18;23.20;99.90
38084;DHT22;23894;51.466;7.444;2022-08-04T07:17:20;23.30;99.90
38084;DHT22;23894;51.466;7.444;2022-08-04T07:19:22;23.30;99.90
38084;DHT22;23894;51.466;7.444;2022-08-04T07:25:27;23.60;99.90
38084;DHT22;23894;51.466;7.444;2022-08-04T07:27:28;23.60;99.90
38084;DHT22;23894;51.466;7.444;2022-08-04T07:29:29;23.70;99.90
38084;DHT22;23894;51.466;7.444;2022-08-04T07:31:30;23.80;99.90
38084;DHT22;23894;51.466;7.444;2022-08-04T07:33:31;23.90;99.90
38084;DHT22;23894;51.466;7.444;2022-08-04T07:35:32;24.00;99.90
38084;DHT22;23894;51.466;7.444;2022-08-04T07:37:33;24.20;99.90
38084;DHT22;23894;51.466;7.444;2022-08-04T07:39:34;24.30;99.90
38084;DHT22;23894;51.466;7.444;2022-08-04T07:41:36;24.30;99.90
38084;DHT22;23894;51.466;7.444;2022-08-04T07:43:37;24.40;99.90
38084;DHT22;23894;51.466;7.444;2022-08-04T07:45:38;24.70;99.90
38084;DHT22;23894;51.466;7.444;2022-08-04T07:47:41;24.80;99.90
38084;DHT22;23894;51.466;7.444;2022-08-04T07:49:42;24.90;99.90
38084;DHT22;23894;51.466;7.444;2022-08-04T07:51:43;25.00;99.90
38084;DHT22;23894;51.466;7.444;2022-08-04T07:53:45;25.20;99.90
38084;DHT22;23894;51.466;7.444;2022-08-04T07:55:46;25.30;99.90
38084;DHT22;23894;51.466;7.444;2022-08-04T07:57:47;25.40;99.90
38084;DHT22;23894;51.466;7.444;2022-08-04T07:59:48;25.50;99.90
38084;DHT22;23894;51.466;7.444;2022-08-04T08:01:49;25.60;99.90
38084;DHT22;23894;51.466;7.444;2022-08-04T08:03:51;25.60;99.90
38084;DHT22;23894;51.466;7.444;2022-08-04T08:05:52;25.80;99.90
38084;DHT22;23894;51.466;7.444;2022-08-04T08:07:53;25.90;99.90
38084;DHT22;23894;51.466;7.444;2022-08-04T08:09:55;26.00;99.90
38084;DHT22;23894;51.466;7.444;2022-08-04T08:11:56;26.10;99.90
38084;DHT22;23894;51.466;7.444;2022-08-04T08:13:57;26.10;99.90
38084;DHT22;23894;51.466;7.444;2022-08-04T08:15:58;26.20;99.90
38084;DHT22;23894;51.466;7.444;2022-08-04T08:17:59;26.30;99.90
38084;DHT22;23894;51.466;7.444;2022-08-04T08:20:00;26.40;99.90
38084;DHT22;23894;51.466;7.444;2022-08-04T08:22:02;26.60;99.90
38084;DHT22;23894;51.466;7.444;2022-08-04T08:24:04;26.70;99.90
38084;DHT22;23894;51.466;7.444;2022-08-04T08:26:05;26.90;99.90
38084;DHT22;23894;51.466;7.444;2022-08-04T08:28:06;27.00;99.90
38084;DHT22;23894;51.466;7.444;2022-08-04T08:30:07;27.10;99.90
38084;DHT22;23894;51.466;7.444;2022-08-04T08:32:10;27.20;99.90
38084;DHT22;23894;51.466;7.444;2022-08-04T08:34:13;27.20;99.90
38084;DHT22;23894;51.466;7.444;2022-08-04T08:36:37;27.20;99.90
38084;DHT22;23894;51.466;7.444;2022-08-04T08:41:22;27.50;99.90
38084;DHT22;23894;51.466;7.444;2022-08-04T08:43:39;27.50;99.90
38084;DHT22;23894;51.466;7.444;2022-08-04T08:56:01;27.90;99.90
38084;DHT22;23894;51.466;7.444;2022-08-04T09:00:16;28.00;99.90
38084;DHT22;23894;51.466;7.444;2022-08-04T09:05:12;28.40;99.90
38084;DHT22;23894;51.466;7.444;2022-08-04T09:09:47;28.70;99.90
38084;DHT22;23894;51.466;7.444;2022-08-04T09:12:00;28.80;99.90
38084;DHT22;23894;51.466;7.444;2022-08-04T09:14:14;28.80;99.90
38084;DHT22;23894;51.466;7.444;2022-08-04T09:16:39;28.80;99.90
38084;DHT22;23894;51.466;7.444;2022-08-04T09:19:00;28.80;99.90
38084;DHT22;23894;51.466;7.444;2022-08-04T09:23:56;28.90;99.90
38084;DHT22;23894;51.466;7.444;2022-08-04T09:26:10;29.10;99.90
38084;DHT22;23894;51.466;7.444;2022-08-04T09:28:25;29.20;99.90
38084;DHT22;23894;51.466;7.444;2022-08-04T09:35:05;29.40;99.90
38084;DHT22;23894;51.466;7.444;2022-08-04T09:37:37;29.40;99.90
38084;DHT22;23894;51.466;7.444;2022-08-04T09:40:47;29.50;99.90
38084;DHT22;23894;51.466;7.444;2022-08-04T09:42:33;29.70;99.90
38084;DHT22;23894;51.466;7.444;2022-08-04T09:44:51;29.70;99.90
38084;DHT22;23894;51.466;7.444;2022-08-04T09:49:30;29.80;99.90
38084;DHT22;23894;51.466;7.444;2022-08-04T09:51:39;29.90;99.90
38084;DHT22;23894;51.466;7.444;2022-08-04T09:53:56;29.90;99.90
38084;DHT22;23894;51.466;7.444;2022-08-04T09:56:26;30.00;99.90
38084;DHT22;23894;51.466;7.444;2022-08-04T10:01:05;30.20;99.90
38084;DHT22;23894;51.466;7.444;2022-08-04T10:03:10;30.30;99.90
38084;DHT22;23894;51.466;7.444;2022-08-04T10:05:13;30.30;99.90
38084;DHT22;23894;51.466;7.444;2022-08-04T10:14:04;30.80;99.90
38084;DHT22;23894;51.466;7.444;2022-08-04T10:19:14;30.90;99.90
38084;DHT22;23894;51.466;7.444;2022-08-04T10:21:29;30.90;99.90
38084;DHT22;23894;51.466;7.444;2022-08-04T10:28:11;31.10;99.90
38084;DHT22;23894;51.466;7.444;2022-08-04T10:30:13;31.20;99.90
38084;DHT22;23894;51.466;7.444;2022-08-04T10:32:27;31.20;99.90
38084;DHT22;23894;51.466;7.444;2022-08-04T10:34:35;31.30;99.90
38084;DHT22;23894;51.466;7.444;2022-08-04T10:37:10;31.30;99.90
38084;DHT22;23894;51.466;7.444;2022-08-04T10:39:16;31.10;99.90
38084;DHT22;23894;51.466;7.444;2022-08-04T10:43:47;31.10;99.90
38084;DHT22;23894;51.466;7.444;2022-08-04T10:46:13;31.10;99.90
38084;DHT22;23894;51.466;7.444;2022-08-04T10:48:25;31.20;99.90
38084;DHT22;23894;51.466;7.444;2022-08-04T10:50:28;31.10;99.90
38084;DHT22;23894;51.466;7.444;2022-08-04T10:52:33;31.10;99.90
38084;DHT22;23894;51.466;7.444;2022-08-04T10:57:14;31.10;99.90
38084;DHT22;23894;51.466;7.444;2022-08-04T10:59:25;31.00;99.90
38084;DHT22;23894;51.466;7.444;2022-08-04T11:01:32;30.90;99.90
38084;DHT22;23894;51.466;7.444;2022-08-04T11:03:37;30.90;99.90
38084;DHT22;23894;51.466;7.444;2022-08-04T11:05:53;30.80;99.90
38084;DHT22;23894;51.466;7.444;2022-08-04T11:08:00;30.90;99.90
38084;DHT22;23894;51.466;7.444;2022-08-04T11:10:01;31.00;99.90
38084;DHT22;23894;51.466;7.444;2022-08-04T11:12:09;31.20;99.90
38084;DHT22;23894;51.466;7.444;2022-08-04T11:14:39;31.20;99.90
38084;DHT22;23894;51.466;7.444;2022-08-04T11:17:05;31.40;99.90
38084;DHT22;23894;51.466;7.444;2022-08-04T11:21:14;31.70;99.90
38084;DHT22;23894;51.466;7.444;2022-08-04T11:23:17;31.80;99.90
38084;DHT22;23894;51.466;7.444;2022-08-04T11:25:24;32.00;99.90
38084;DHT22;23894;51.466;7.444;2022-08-04T11:29:58;32.30;99.90
38084;DHT22;23894;51.466;7.444;2022-08-04T11:32:02;32.50;99.90
38084;DHT22;23894;51.466;7.444;2022-08-04T11:36:45;32.60;99.90
38084;DHT22;23894;51.466;7.444;2022-08-04T11:38:56;32.60;99.90
38084;DHT22;23894;51.466;7.444;2022-08-04T11:41:04;32.60;99.90
38084;DHT22;23894;51.466;7.444;2022-08-04T11:43:30;32.70;99.90
38084;DHT22;23894;51.466;7.444;2022-08-04T11:45:46;32.80;99.90
38084;DHT22;23894;51.466;7.444;2022-08-04T11:48:16;32.90;99.90
38084;DHT22;23894;51.466;7.444;2022-08-04T11:50:38;33.00;99.90
38084;DHT22;23894;51.466;7.444;2022-08-04T11:52:43;33.10;99.90
38084;DHT22;23894;51.466;7.444;2022-08-04T11:54:45;33.10;99.90
38084;DHT22;23894;51.466;7.444;2022-08-04T11:56:46;33.20;99.90
38084;DHT22;23894;51.466;7.444;2022-08-04T11:58:47;33.20;99.90
38084;DHT22;23894;51.466;7.444;2022-08-04T12:01:11;33.10;99.90
38084;DHT22;23894;51.466;7.444;2022-08-04T12:03:31;33.00;99.90
38084;DHT22;23894;51.466;7.444;2022-08-04T12:11:20;32.80;99.90
38084;DHT22;23894;51.466;7.444;2022-08-04T12:15:54;32.70;99.90
38084;DHT22;23894;51.466;7.444;2022-08-04T12:18:07;32.70;99.90
38084;DHT22;23894;51.466;7.444;2022-08-04T12:20:16;32.70;99.90
38084;DHT22;23894;51.466;7.444;2022-08-04T12:22:22;32.70;99.90
38084;DHT22;23894;51.466;7.444;2022-08-04T12:24:36;32.80;99.90
38084;DHT22;23894;51.466;7.444;2022-08-04T12:26:42;32.90;99.90
38084;DHT22;23894;51.466;7.444;2022-08-04T12:28:46;32.90;99.90
38084;DHT22;23894;51.466;7.444;2022-08-04T12:30:54;32.90;99.90
38084;DHT22;23894;51.466;7.444;2022-08-04T12:33:04;32.80;99.90
38084;DHT22;23894;51.466;7.444;2022-08-04T12:35:35;32.70;99.90
38084;DHT22;23894;51.466;7.444;2022-08-04T12:37:58;32.50;99.90
38084;DHT22;23894;51.466;7.444;2022-08-04T12:40:10;32.50;99.90
38084;DHT22;23894;51.466;7.444;2022-08-04T12:44:13;32.20;99.90
38084;DHT22;23894;51.466;7.444;2022-08-04T12:46:32;32.10;99.90
38084;DHT22;23894;51.466;7.444;2022-08-04T12:48:36;31.90;99.90
38084;DHT22;23894;51.466;7.444;2022-08-04T12:50:37;31.80;99.90
38084;DHT22;23894;51.466;7.444;2022-08-04T12:52:46;31.70;99.90
38084;DHT22;23894;51.466;7.444;2022-08-04T12:54:51;31.70;99.90
38084;DHT22;23894;51.466;7.444;2022-08-04T12:56:57;31.60;99.90
38084;DHT22;23894;51.466;7.444;2022-08-04T12:59:06;31.50;99.90
38084;DHT22;23894;51.466;7.444;2022-08-04T13:01:19;31.50;99.90
38084;DHT22;23894;51.466;7.444;2022-08-04T13:03:21;31.50;99.90
38084;DHT22;23894;51.466;7.444;2022-08-04T13:05:24;31.40;99.90
38084;DHT22;23894;51.466;7.444;2022-08-04T13:07:36;31.40;99.90
38084;DHT22;23894;51.466;7.444;2022-08-04T13:09:37;31.40;99.90
38084;DHT22;23894;51.466;7.444;2022-08-04T13:11:42;31.40;99.90
38084;DHT22;23894;51.466;7.444;2022-08-04T13:13:43;31.30;99.90
38084;DHT22;23894;51.466;7.444;2022-08-04T13:15:55;31.30;99.90
38084;DHT22;23894;51.466;7.444;2022-08-04T13:18:07;31.30;99.90
38084;DHT22;23894;51.466;7.444;2022-08-04T13:20:08;31.30;99.90
38084;DHT22;23894;51.466;7.444;2022-08-04T13:22:08;31.20;99.90
38084;DHT22;23894;51.466;7.444;2022-08-04T13:24:12;31.20;99.90
38084;DHT22;23894;51.466;7.444;2022-08-04T13:26:14;31.10;99.90
38084;DHT22;23894;51.466;7.444;2022-08-04T13:28:20;31.10;99.90
38084;DHT22;23894;51.466;7.444;2022-08-04T13:30:23;31.10;99.90
38084;DHT22;23894;51.466;7.444;2022-08-04T13:32:24;31.20;99.90
38084;DHT22;23894;51.466;7.444;2022-08-04T13:34:26;31.30;99.90
38084;DHT22;23894;51.466;7.444;2022-08-04T13:36:29;31.30;99.90
38084;DHT22;23894;51.466;7.444;2022-08-04T13:38:30;31.30;99.90
38084;DHT22;23894;51.466;7.444;2022-08-04T13:40:33;31.30;99.90
38084;DHT22;23894;51.466;7.444;2022-08-04T13:42:36;31.40;99.90
38084;DHT22;23894;51.466;7.444;2022-08-04T13:44:40;31.40;99.90
38084;DHT22;23894;51.466;7.444;2022-08-04T13:47:03;31.30;99.90
38084;DHT22;23894;51.466;7.444;2022-08-04T13:49:08;31.20;99.90
38084;DHT22;23894;51.466;7.444;2022-08-04T13:51:10;31.10;99.90
38084;DHT22;23894;51.466;7.444;2022-08-04T13:53:11;31.00;99.90
38084;DHT22;23894;51.466;7.444;2022-08-04T13:55:29;30.90;99.90
38084;DHT22;23894;51.466;7.444;2022-08-04T13:57:32;30.70;99.90
38084;DHT22;23894;51.466;7.444;2022-08-04T13:59:36;30.60;99.90
38084;DHT22;23894;51.466;7.444;2022-08-04T14:01:41;30.50;99.90
38084;DHT22;23894;51.466;7.444;2022-08-04T14:04:08;30.40;99.90
38084;DHT22;23894;51.466;7.444;2022-08-04T14:08:23;30.30;99.90
38084;DHT22;23894;51.466;7.444;2022-08-04T14:10:26;30.30;99.90
38084;DHT22;23894;51.466;7.444;2022-08-04T14:12:27;30.20;99.90
38084;DHT22;23894;51.466;7.444;2022-08-04T14:14:29;30.20;99.90
38084;DHT22;23894;51.466;7.444;2022-08-04T14:16:30;30.10;99.90
38084;DHT22;23894;51.466;7.444;2022-08-04T14:18:31;30.00;99.90
38084;DHT22;23894;51.466;7.444;2022-08-04T14:20:32;30.00;99.90
38084;DHT22;23894;51.466;7.444;2022-08-04T14:22:35;29.90;99.90
38084;DHT22;23894;51.466;7.444;2022-08-04T14:24:36;29.90;99.90
38084;DHT22;23894;51.466;7.444;2022-08-04T14:26:36;29.90;99.90
38084;DHT22;23894;51.466;7.444;2022-08-04T14:28:37;29.80;99.90
38084;DHT22;23894;51.466;7.444;2022-08-04T14:30:38;29.90;99.90
38084;DHT22;23894;51.466;7.444;2022-08-04T14:32:53;29.90;99.90
38084;DHT22;23894;51.466;7.444;2022-08-04T14:34:54;29.90;99.90
38084;DHT22;23894;51.466;7.444;2022-08-04T14:36:55;29.90;99.90
38084;DHT22;23894;51.466;7.444;2022-08-04T14:39:05;29.80;99.90
38084;DHT22;23894;51.466;7.444;2022-08-04T14:41:06;29.80;99.90
38084;DHT22;23894;51.466;7.444;2022-08-04T14:43:07;29.80;99.90
38084;DHT22;23894;51.466;7.444;2022-08-04T14:45:09;29.80;99.90
38084;DHT22;23894;51.466;7.444;2022-08-04T14:47:09;29.80;99.90
38084;DHT22;23894;51.466;7.444;2022-08-04T14:49:12;29.70;99.90
38084;DHT22;23894;51.466;7.444;2022-08-04T14:51:13;29.70;99.90
38084;DHT22;23894;51.466;7.444;2022-08-04T14:53:17;29.60;99.90
38084;DHT22;23894;51.466;7.444;2022-08-04T14:55:23;29.50;99.90
38084;DHT22;23894;51.466;7.444;2022-08-04T14:57:24;29.50;99.90
38084;DHT22;23894;51.466;7.444;2022-08-04T15:01:26;29.30;99.90
38084;DHT22;23894;51.466;7.444;2022-08-04T15:03:28;29.30;99.90
38084;DHT22;23894;51.466;7.444;2022-08-04T15:05:30;29.20;99.90
38084;DHT22;23894;51.466;7.444;2022-08-04T15:07:31;29.20;99.90
38084;DHT22;23894;51.466;7.444;2022-08-04T15:09:32;29.10;99.90
38084;DHT22;23894;51.466;7.444;2022-08-04T15:11:34;29.10;99.90
38084;DHT22;23894;51.466;7.444;2022-08-04T15:13:35;29.10;99.90
38084;DHT22;23894;51.466;7.444;2022-08-04T15:15:41;29.10;99.90
38084;DHT22;23894;51.466;7.444;2022-08-04T15:17:43;29.10;99.90
38084;DHT22;23894;51.466;7.444;2022-08-04T15:19:44;29.10;99.90
38084;DHT22;23894;51.466;7.444;2022-08-04T15:21:44;29.10;99.90
38084;DHT22;23894;51.466;7.444;2022-08-04T15:23:45;29.20;99.90
38084;DHT22;23894;51.466;7.444;2022-08-04T15:25:50;29.10;99.90
38084;DHT22;23894;51.466;7.444;2022-08-04T15:27:53;29.10;99.90
38084;DHT22;23894;51.466;7.444;2022-08-04T15:29:59;29.10;99.90
38084;DHT22;23894;51.466;7.444;2022-08-04T15:32:02;29.10;99.90
38084;DHT22;23894;51.466;7.444;2022-08-04T15:34:05;29.00;99.90
38084;DHT22;23894;51.466;7.444;2022-08-04T15:36:14;29.00;99.90
38084;DHT22;23894;51.466;7.444;2022-08-04T15:38:15;28.90;99.90
38084;DHT22;23894;51.466;7.444;2022-08-04T15:40:34;28.90;99.90
38084;DHT22;23894;51.466;7.444;2022-08-04T15:45:22;29.00;99.90
38084;DHT22;23894;51.466;7.444;2022-08-04T15:47:24;29.00;99.90
38084;DHT22;23894;51.466;7.444;2022-08-04T15:49:26;29.00;99.90
38084;DHT22;23894;51.466;7.444;2022-08-04T15:51:27;29.00;99.90
38084;DHT22;23894;51.466;7.444;2022-08-04T15:53:33;29.00;99.90
38084;DHT22;23894;51.466;7.444;2022-08-04T15:55:52;29.00;99.90
38084;DHT22;23894;51.466;7.444;2022-08-04T15:57:57;29.10;99.90
38084;DHT22;23894;51.466;7.444;2022-08-04T16:00:03;29.10;99.90
38084;DHT22;23894;51.466;7.444;2022-08-04T16:04:33;29.10;99.90
38084;DHT22;23894;51.466;7.444;2022-08-04T16:10:50;29.20;99.90
38084;DHT22;23894;51.466;7.444;2022-08-04T16:12:52;29.20;99.90
38084;DHT22;23894;51.466;7.444;2022-08-04T16:14:53;29.20;99.90
38084;DHT22;23894;51.466;7.444;2022-08-04T16:16:54;29.20;99.90
38084;DHT22;23894;51.466;7.444;2022-08-04T16:19:03;29.20;99.90
38084;DHT22;23894;51.466;7.444;2022-08-04T16:21:15;29.20;99.90
38084;DHT22;23894;51.466;7.444;2022-08-04T16:23:54;29.20;99.90
38084;DHT22;23894;51.466;7.444;2022-08-04T16:25:55;29.20;99.90
38084;DHT22;23894;51.466;7.444;2022-08-04T16:27:56;29.20;99.90
38084;DHT22;23894;51.466;7.444;2022-08-04T16:30:04;29.10;99.90
38084;DHT22;23894;51.466;7.444;2022-08-04T16:32:21;29.10;99.90
38084;DHT22;23894;51.466;7.444;2022-08-04T16:34:22;29.10;99.90
38084;DHT22;23894;51.466;7.444;2022-08-04T16:36:55;29.00;99.90
38084;DHT22;23894;51.466;7.444;2022-08-04T16:39:00;29.00;99.90
38084;DHT22;23894;51.466;7.444;2022-08-04T16:41:04;28.90;99.90
38084;DHT22;23894;51.466;7.444;2022-08-04T16:43:13;28.90;99.90
38084;DHT22;23894;51.466;7.444;2022-08-04T16:45:14;28.90;99.90
38084;DHT22;23894;51.466;7.444;2022-08-04T16:50:00;28.80;99.90
38084;DHT22;23894;51.466;7.444;2022-08-04T16:52:04;28.70;99.90
38084;DHT22;23894;51.466;7.444;2022-08-04T16:54:05;28.80;99.90
38084;DHT22;23894;51.466;7.444;2022-08-04T16:56:09;28.80;99.90
38084;DHT22;23894;51.466;7.444;2022-08-04T16:58:10;28.80;99.90